Time;durP1;ratioP1;P1;durP2;ratioP2;P2;SDS_P1;SDS_P2;PMS_P1;PMS_P2;Temp;Humidity;BMP_temperature;BMP_pressure;BME280_temperature;BME280_humidity;BME280_pressure;Samples;Min_cycle;Max_cycle;Signal;HPM_P1;HPM_P2
2023/03/02 00:00:57;;;;;;;3.58;1.70;;;;;;;-2.25;78.20;146773.44;5101516;28;20024;-64
2023/03/02 00:03:23;;;;;;;6.93;2.00;;;;;;;-2.14;77.25;146800.03;5101401;28;20257;-64
2023/03/02 00:05:49;;;;;;;4.45;1.98;;;;;;;-2.10;77.75;146810.19;5101817;28;20106;-64
2023/03/02 00:08:17;;;;;;;4.03;1.67;;;;;;;-2.17;77.54;146793.69;5101470;28;20039;-65
2023/03/02 00:10:43;;;;;;;4.28;1.73;;;;;;;-2.32;77.57;146756.91;5101476;28;20062;-64
2023/03/02 00:13:10;;;;;;;5.63;2.08;;;;;;;-2.22;77.68;146781.03;5098412;28;20103;-65
2023/03/02 00:15:35;;;;;;;4.38;2.05;;;;;;;-2.24;78.02;146775.94;5097327;28;20026;-64
2023/03/02 00:18:01;;;;;;;5.43;2.50;;;;;;;-2.35;78.35;146748.00;5101530;28;20074;-65
2023/03/02 00:20:26;;;;;;;4.45;2.10;;;;;;;-2.35;78.54;146748.00;5100371;28;20027;-64
2023/03/02 00:22:52;;;;;;;5.03;2.00;;;;;;;-2.31;78.25;146758.16;5101013;28;20040;-64
2023/03/02 00:25:18;;;;;;;4.60;2.17;;;;;;;-2.29;77.44;146763.28;5101389;28;20028;-64
2023/03/02 00:27:44;;;;;;;5.82;2.67;;;;;;;-2.21;77.04;146783.53;5101643;28;20305;-64
2023/03/02 00:30:11;;;;;;;5.53;2.20;;;;;;;-2.19;77.08;146787.38;5102000;28;20275;-64
2023/03/02 00:32:37;;;;;;;7.53;2.50;;;;;;;-2.12;77.38;146805.16;5105108;28;20058;-64
2023/03/02 00:35:03;;;;;;;5.05;2.50;;;;;;;-2.19;77.19;146787.38;5102540;28;20313;-65
2023/03/02 00:37:29;;;;;;;5.03;2.00;;;;;;;-2.22;77.48;146781.03;5091556;28;20378;-65
2023/03/02 00:39:55;;;;;;;4.93;2.08;;;;;;;-2.11;77.23;146807.66;5104490;28;20048;-64
2023/03/02 00:42:20;;;;;;;5.45;2.22;;;;;;;-2.13;76.89;146802.59;5104819;28;20020;-65
2023/03/02 00:44:46;;;;;;;5.28;2.30;;;;;;;-2.16;76.50;146795.00;5104880;28;20073;-67
2023/03/02 00:47:12;;;;;;;4.72;2.25;;;;;;;-2.32;75.45;146756.91;5104104;28;20403;-65
2023/03/02 00:49:37;;;;;;;4.57;2.47;;;;;;;-2.28;76.93;146767.06;5104977;28;20087;-65
2023/03/02 00:52:04;;;;;;;4.82;2.30;;;;;;;-2.18;76.59;146789.88;5104753;28;20227;-64
2023/03/02 00:54:30;;;;;;;4.07;2.22;;;;;;;-2.17;77.25;146793.69;5104850;28;20452;-64
2023/03/02 00:56:56;;;;;;;6.97;2.45;;;;;;;-2.18;77.10;146789.88;5104104;28;20030;-64
2023/03/02 00:59:27;;;;;;;4.45;2.10;;;;;;;-2.10;76.12;146811.44;5104738;28;20300;-64
2023/03/02 01:01:58;;;;;;;5.97;2.65;;;;;;;-2.42;75.80;146731.56;5104486;28;20032;-64
2023/03/02 01:04:35;;;;;;;3.95;2.05;;;;;;;-2.34;75.61;146751.81;5104708;28;20095;-65
2023/03/02 01:07:04;;;;;;;4.13;2.10;;;;;;;-2.49;75.08;146715.03;5103804;28;20035;-65
2023/03/02 01:09:30;;;;;;;3.78;2.10;;;;;;;-2.34;75.25;146750.56;5104202;28;20032;-65
2023/03/02 01:11:56;;;;;;;4.70;2.05;;;;;;;-2.30;74.27;146761.97;5104354;28;20077;-65
2023/03/02 01:14:22;;;;;;;8.68;2.50;;;;;;;-2.45;73.97;146723.94;5104257;28;20087;-65
2023/03/02 01:16:48;;;;;;;4.18;1.90;;;;;;;-2.38;74.38;146741.72;5103861;28;20100;-65
2023/03/02 01:19:14;;;;;;;4.22;1.80;;;;;;;-2.43;73.75;146729.00;5103054;28;20040;-65
2023/03/02 01:21:41;;;;;;;3.83;1.75;;;;;;;-2.41;74.57;146732.81;5103836;28;20020;-64
2023/03/02 01:24:08;;;;;;;3.15;1.70;;;;;;;-2.65;74.12;146675.72;5103839;28;20055;-65
2023/03/02 01:26:34;;;;;;;5.22;1.83;;;;;;;-2.54;73.33;146702.34;5103635;28;20031;-65
2023/03/02 01:28:59;;;;;;;4.85;1.85;;;;;;;-2.57;73.54;146694.75;5103919;28;20034;-65
2023/03/02 01:31:26;;;;;;;3.33;1.90;;;;;;;-2.82;74.05;146633.88;5103976;28;20047;-64
2023/03/02 01:33:52;;;;;;;5.38;2.00;;;;;;;-2.67;73.92;146669.38;5103977;28;20024;-64
2023/03/02 01:36:18;;;;;;;4.68;2.08;;;;;;;-2.52;73.58;146706.13;5098358;28;20102;-64
2023/03/02 01:38:44;;;;;;;3.90;2.15;;;;;;;-2.64;73.36;146676.97;5081808;28;20040;-64
2023/03/02 01:41:10;;;;;;;4.53;2.17;;;;;;;-2.56;73.55;146697.28;5096930;28;20028;-64
2023/03/02 01:43:36;;;;;;;7.50;1.80;;;;;;;-2.65;72.84;146675.72;5096138;28;20020;-64
2023/03/02 01:46:26;;;;;;;3.17;1.90;;;;;;;-2.77;73.47;146645.28;5103056;28;20020;-64
2023/03/02 01:49:01;;;;;;;3.67;2.03;;;;;;;-2.87;72.85;146621.19;5103493;28;20043;-64
2023/03/02 01:51:29;;;;;;;4.32;1.70;;;;;;;-2.72;72.73;146657.97;5103494;28;20067;-65
2023/03/02 01:54:00;;;;;;;5.43;1.55;;;;;;;-2.63;73.13;146680.78;5102403;28;20055;-66
2023/03/02 01:56:33;;;;;;;4.05;1.80;;;;;;;-2.72;72.82;146657.97;5103028;28;20060;-63
2023/03/02 01:59:03;;;;;;;3.63;2.08;;;;;;;-2.59;72.21;146689.69;5103339;28;20076;-65
2023/03/02 02:01:31;;;;;;;2.40;1.58;;;;;;;-2.53;72.29;146704.91;5103698;28;20028;-64
2023/03/02 02:03:56;;;;;;;2.13;1.38;;;;;;;-2.54;71.60;146701.09;5103087;28;20016;-65
2023/03/02 02:06:32;;;;;;;4.38;1.58;;;;;;;-2.98;71.57;146594.56;5102851;28;20087;-66
2023/03/02 02:09:00;;;;;;;3.50;1.70;;;;;;;-2.67;71.80;146670.63;5102908;28;20036;-65
2023/03/02 02:11:26;;;;;;;5.70;2.42;;;;;;;-2.76;71.16;146647.81;5098311;28;20032;-64
2023/03/02 02:13:58;;;;;;;4.82;1.77;;;;;;;-2.90;70.76;146612.31;5102615;28;20027;-64
2023/03/02 02:16:25;;;;;;;3.15;1.42;;;;;;;-2.83;70.93;146631.31;5102712;28;20406;-64
2023/03/02 02:18:51;;;;;;;4.20;1.38;;;;;;;-2.71;70.27;146659.22;5101735;28;20212;-64
2023/03/02 02:21:19;;;;;;;4.05;1.88;;;;;;;-2.63;69.80;146679.53;5102881;28;20083;-64
2023/03/02 02:24:18;;;;;;;2.67;1.30;;;;;;;-2.67;70.84;146670.63;5103235;28;20039;-64
2023/03/02 02:26:53;;;;;;;2.95;1.35;;;;;;;-2.67;70.58;146670.63;5102601;28;20056;-64
2023/03/02 02:29:29;;;;;;;3.78;1.50;;;;;;;-2.69;70.65;146665.56;5103250;28;20039;-65
2023/03/02 02:32:22;;;;;;;2.08;1.27;;;;;;;-2.65;69.84;146675.72;5102765;28;20036;-64
2023/03/02 02:34:57;;;;;;;3.50;1.48;;;;;;;-2.62;70.58;146683.34;5100567;28;20071;-65
2023/03/02 02:37:29;;;;;;;5.10;1.70;;;;;;;-2.66;70.37;146673.19;5090782;28;20029;-64
2023/03/02 02:39:56;;;;;;;2.47;1.35;;;;;;;-2.50;70.62;146712.50;5099575;28;20095;-65
2023/03/02 02:42:31;;;;;;;3.38;1.60;;;;;;;-2.61;70.94;146685.88;5100825;28;20271;-65
2023/03/02 02:45:02;;;;;;;2.60;1.33;;;;;;;-2.61;69.72;146684.59;5093019;28;20322;-64
2023/03/02 02:47:28;;;;;;;2.85;1.60;;;;;;;-2.68;70.01;146668.13;5094933;28;20016;-64
2023/03/02 02:49:55;;;;;;;3.17;1.67;;;;;;;-2.55;70.22;146699.84;5101604;28;20069;-64
2023/03/02 02:52:25;;;;;;;1.95;1.40;;;;;;;-2.73;70.25;146654.19;5085753;28;20023;-64
2023/03/02 02:54:55;;;;;;;3.70;1.17;;;;;;;-2.89;70.61;146614.81;5093631;28;20046;-64
2023/03/02 02:57:24;;;;;;;2.55;1.63;;;;;;;-2.83;71.36;146630.06;5094629;28;20031;-64
2023/03/02 02:59:57;;;;;;;4.20;1.50;;;;;;;-2.85;72.10;146624.97;5102417;28;20032;-64
2023/03/02 03:02:25;;;;;;;2.50;1.40;;;;;;;-2.89;71.65;146616.13;5086597;28;20146;-64
2023/03/02 03:05:01;;;;;;;4.00;1.90;;;;;;;-2.82;71.06;146633.88;5101348;28;20024;-65
2023/03/02 03:07:30;;;;;;;3.78;1.75;;;;;;;-3.10;72.67;146564.13;5089506;28;20066;-64
2023/03/02 03:10:22;;;;;;;3.17;1.60;;;;;;;-2.77;71.54;146646.53;5099103;28;20031;-64
2023/03/02 03:12:48;;;;;;;5.18;1.75;;;;;;;-2.97;71.30;146595.81;5098128;28;20028;-64
2023/03/02 03:15:15;;;;;;;2.95;1.67;;;;;;;-3.04;72.16;146579.31;5091377;28;20040;-64
2023/03/02 03:17:46;;;;;;;5.32;1.55;;;;;;;-2.83;72.56;146631.31;5094233;28;20456;-65
2023/03/02 03:20:15;;;;;;;3.45;1.80;;;;;;;-2.90;71.53;146613.56;5100771;28;20340;-63
2023/03/02 03:22:41;;;;;;;3.70;1.92;;;;;;;-2.70;71.86;146663.03;5086266;28;20044;-64
2023/03/02 03:25:07;;;;;;;3.15;1.77;;;;;;;-2.70;72.00;146661.78;5096290;28;20039;-65
2023/03/02 03:27:32;;;;;;;3.72;1.85;;;;;;;-2.73;71.54;146654.19;5095185;28;20042;-65
2023/03/02 03:30:00;;;;;;;2.65;1.60;;;;;;;-2.76;70.85;146647.81;5100674;28;20622;-65
2023/03/02 03:32:26;;;;;;;4.97;1.55;;;;;;;-2.78;71.59;146644.03;5101588;28;20036;-65
2023/03/02 03:34:51;;;;;;;4.22;1.70;;;;;;;-2.86;72.78;146622.47;5096981;28;20027;-63
2023/03/02 03:37:19;;;;;;;4.72;1.90;;;;;;;-2.93;72.48;146604.72;5101365;28;20107;-63
2023/03/02 03:39:45;;;;;;;2.10;1.38;;;;;;;-2.81;71.83;146635.13;5098886;28;20347;-64
2023/03/02 03:42:10;;;;;;;3.17;1.55;;;;;;;-2.80;71.92;146638.94;5101721;28;20032;-65
2023/03/02 03:44:36;;;;;;;3.00;1.60;;;;;;;-2.84;71.39;146628.78;5091625;28;20039;-63
2023/03/02 03:47:02;;;;;;;2.67;1.38;;;;;;;-2.81;70.25;146636.44;5099892;28;20035;-64
2023/03/02 03:49:28;;;;;;;3.22;1.60;;;;;;;-2.86;71.52;146623.72;5101967;28;20020;-64
2023/03/02 03:51:54;;;;;;;2.45;1.10;;;;;;;-2.97;70.62;146595.81;5101508;28;20038;-65
2023/03/02 03:54:19;;;;;;;2.42;1.55;;;;;;;-2.93;70.24;146604.72;5095265;28;20192;-65
2023/03/02 03:56:47;;;;;;;1.90;1.35;;;;;;;-2.79;70.26;146640.22;5101084;28;20043;-65
2023/03/02 03:59:19;;;;;;;2.78;1.50;;;;;;;-2.75;70.24;146650.38;5101621;28;20035;-64
2023/03/02 04:01:48;;;;;;;3.10;1.63;;;;;;;-3.01;70.87;146585.69;5096282;28;20052;-64
2023/03/02 04:04:17;;;;;;;2.58;1.30;;;;;;;-2.97;71.44;146595.81;5100757;28;20024;-64
2023/03/02 04:06:44;;;;;;;3.42;2.13;;;;;;;-2.88;71.06;146617.38;5101856;28;20043;-64
2023/03/02 04:09:11;;;;;;;7.32;2.40;;;;;;;-2.71;70.21;146659.22;5096187;28;20173;-65
2023/03/02 04:11:39;;;;;;;3.15;1.70;;;;;;;-2.82;70.87;146633.88;5101611;28;20028;-65
2023/03/02 04:14:07;;;;;;;3.00;1.70;;;;;;;-2.93;71.52;146604.72;5102852;28;20032;-65
2023/03/02 04:16:33;;;;;;;6.05;2.25;;;;;;;-2.85;71.26;146626.28;5104341;28;20028;-64
2023/03/02 04:19:00;;;;;;;3.50;1.50;;;;;;;-2.99;70.56;146592.03;5105121;28;20083;-65
2023/03/02 04:21:26;;;;;;;3.97;1.73;;;;;;;-2.90;70.87;146612.31;5105587;28;20016;-65
2023/03/02 04:23:51;;;;;;;3.38;1.98;;;;;;;-2.88;70.76;146617.38;5104964;28;20170;-65
2023/03/02 04:26:17;;;;;;;4.53;1.60;;;;;;;-2.96;71.62;146599.63;5104699;28;20350;-65
2023/03/02 04:28:43;;;;;;;4.78;2.15;;;;;;;-3.03;71.58;146581.88;5104622;28;20069;-64
2023/03/02 04:31:09;;;;;;;4.43;1.95;;;;;;;-2.78;71.19;146642.72;5105082;28;20016;-65
2023/03/02 04:33:34;;;;;;;5.00;1.80;;;;;;;-2.95;70.67;146602.19;5104999;28;20035;-65
2023/03/02 04:36:00;;;;;;;3.60;1.83;;;;;;;-3.08;70.84;146569.19;5100094;28;20028;-64
2023/03/02 04:38:28;;;;;;;2.63;1.50;;;;;;;-2.96;69.96;146598.38;5097428;28;20048;-64
2023/03/02 04:40:55;;;;;;;3.65;1.60;;;;;;;-2.80;70.54;146637.69;5083227;28;20052;-65
2023/03/02 04:43:21;;;;;;;3.85;1.50;;;;;;;-2.87;70.53;146619.91;5104901;28;20061;-64
2023/03/02 04:45:47;;;;;;;2.25;1.40;;;;;;;-2.79;70.39;146640.22;5103387;28;20031;-66
2023/03/02 04:48:12;;;;;;;2.20;1.35;;;;;;;-2.83;69.64;146630.06;5101667;28;20027;-67
2023/03/02 04:50:39;;;;;;;1.95;1.60;;;;;;;-2.75;69.94;146650.38;5104708;28;20027;-65
2023/03/02 04:53:05;;;;;;;2.30;1.60;;;;;;;-2.87;70.36;146621.19;5103042;28;20049;-64
2023/03/02 04:55:31;;;;;;;2.20;1.50;;;;;;;-2.81;70.31;146635.13;5104604;28;20047;-65
2023/03/02 04:57:57;;;;;;;5.32;1.80;;;;;;;-2.80;70.53;146637.69;5103921;28;20028;-64
2023/03/02 05:00:22;;;;;;;1.80;1.45;;;;;;;-2.70;69.72;146663.03;5103024;28;20041;-64
2023/03/02 05:02:48;;;;;;;3.03;1.58;;;;;;;-2.69;70.02;146665.56;5103643;28;20036;-65
2023/03/02 05:05:18;;;;;;;3.05;1.80;;;;;;;-2.68;69.82;146668.13;5102526;28;20318;-65
2023/03/02 05:07:44;;;;;;;2.60;1.52;;;;;;;-2.68;70.23;146666.84;5097182;28;20050;-65
2023/03/02 05:10:12;;;;;;;5.82;2.03;;;;;;;-2.86;69.47;146622.47;5101946;28;20024;-64
2023/03/02 05:12:53;;;;;;;3.35;1.55;;;;;;;-2.80;70.26;146637.69;5090216;28;20028;-65
2023/03/02 05:15:21;;;;;;;3.57;1.87;;;;;;;-2.93;70.14;146604.72;5098019;28;20051;-64
2023/03/02 05:17:46;;;;;;;2.95;1.75;;;;;;;-2.83;69.87;146631.31;5095552;28;20425;-64
2023/03/02 05:20:12;;;;;;;3.30;1.95;;;;;;;-2.83;69.87;146630.06;5088637;28;20035;-66
2023/03/02 05:22:38;;;;;;;3.35;1.75;;;;;;;-2.79;71.52;146641.47;5103662;28;20048;-64
2023/03/02 05:25:04;;;;;;;3.25;2.13;;;;;;;-2.65;69.31;146675.72;5101238;28;20054;-66
2023/03/02 05:27:30;;;;;;;4.65;2.00;;;;;;;-2.69;69.41;146665.56;5102647;28;20201;-66
2023/03/02 05:29:55;;;;;;;6.50;4.43;;;;;;;-2.66;69.96;146673.19;5098729;28;20031;-67
2023/03/02 05:32:21;;;;;;;2.65;1.75;;;;;;;-2.63;69.19;146679.53;5094367;28;20073;-65
2023/03/02 05:34:46;;;;;;;5.63;2.20;;;;;;;-2.70;68.70;146663.03;5103692;28;20047;-65
2023/03/02 05:37:12;;;;;;;3.35;1.75;;;;;;;-2.64;68.79;146678.28;5101603;28;20035;-64
2023/03/02 05:39:38;;;;;;;6.05;1.55;;;;;;;-2.93;68.60;146605.97;5103443;28;20081;-64
2023/03/02 05:42:04;;;;;;;2.28;1.58;;;;;;;-2.79;68.40;146641.47;5102904;28;20036;-64
2023/03/02 05:44:30;;;;;;;1.75;1.48;;;;;;;-2.70;69.29;146663.03;5102315;28;20036;-63
2023/03/02 05:46:56;;;;;;;2.20;1.35;;;;;;;-2.76;67.55;146647.81;5102921;28;20091;-63
2023/03/02 05:49:22;;;;;;;2.17;1.33;;;;;;;-2.58;67.28;146692.19;5103062;28;20024;-64
2023/03/02 05:51:47;;;;;;;5.53;1.88;;;;;;;-2.66;67.78;146673.19;5103094;28;20046;-63
2023/03/02 05:54:13;;;;;;;5.75;1.98;;;;;;;-2.48;68.15;146716.28;5103229;28;20032;-64
2023/03/02 05:56:38;;;;;;;2.70;1.90;;;;;;;-2.32;67.52;146755.66;5103631;28;20330;-64
2023/03/02 05:59:04;;;;;;;4.88;2.13;;;;;;;-2.40;69.01;146736.59;5096118;28;20032;-66
2023/03/02 06:01:29;;;;;;;5.20;2.13;;;;;;;-2.32;68.44;146756.91;5097602;28;20028;-64
2023/03/02 06:03:55;;;;;;;4.85;2.00;;;;;;;-2.23;66.88;146777.22;5102844;28;20218;-64
2023/03/02 06:06:21;;;;;;;4.85;2.20;;;;;;;-2.24;67.44;146774.69;5090918;28;20032;-64
2023/03/02 06:08:46;;;;;;;3.47;2.28;;;;;;;-2.17;66.99;146792.44;5096255;28;20521;-64
2023/03/02 06:11:12;;;;;;;3.17;2.00;;;;;;;-2.15;66.87;146797.50;5102771;28;20190;-64
2023/03/02 06:13:38;;;;;;;4.43;2.05;;;;;;;-1.95;66.71;146848.28;5084859;28;20040;-64
2023/03/02 06:16:04;;;;;;;7.97;2.30;;;;;;;-2.09;68.12;146814.00;5101129;28;20024;-63
2023/03/02 06:18:30;;;;;;;5.07;2.38;;;;;;;-1.87;67.69;146867.28;5102164;28;20368;-63
2023/03/02 06:20:55;;;;;;;3.42;2.20;;;;;;;-1.97;66.30;146843.19;5102010;28;20083;-65
2023/03/02 06:23:21;;;;;;;6.63;2.20;;;;;;;-1.77;66.20;146891.41;5102701;28;20308;-65
2023/03/02 06:25:47;;;;;;;3.78;2.00;;;;;;;-1.75;66.46;146896.53;5102179;28;20055;-68
2023/03/02 06:28:14;;;;;;;5.95;2.47;;;;;;;-1.64;65.47;146923.16;5101526;28;20054;-65
2023/03/02 06:30:40;;;;;;;3.28;2.45;;;;;;;-1.56;64.27;146943.47;5102165;28;20028;-64
2023/03/02 06:33:06;;;;;;;9.70;2.33;;;;;;;-1.70;64.18;146909.19;5101782;28;20035;-65
2023/03/02 06:35:32;;;;;;;4.68;1.92;;;;;;;-1.48;64.97;146962.50;5101948;28;20024;-63
2023/03/02 06:37:57;;;;;;;7.88;2.25;;;;;;;-1.54;64.08;146948.53;5102543;28;20328;-63
2023/03/02 06:40:23;;;;;;;6.47;1.92;;;;;;;-1.73;64.16;146902.84;5102389;28;20031;-63
2023/03/02 06:42:49;;;;;;;5.68;2.13;;;;;;;-1.65;63.29;146921.91;5102094;28;20080;-63
2023/03/02 06:45:14;;;;;;;3.70;1.98;;;;;;;-1.55;63.94;146946.03;5101816;28;20073;-63
2023/03/02 06:47:40;;;;;;;3.03;1.90;;;;;;;-1.53;63.03;146951.09;5101936;28;20304;-63
2023/03/02 06:50:06;;;;;;;4.88;2.15;;;;;;;-1.36;62.16;146993.00;5079960;28;20235;-63
2023/03/02 06:52:32;;;;;;;6.75;2.80;;;;;;;-1.53;63.42;146949.84;5102185;28;20019;-63
2023/03/02 06:54:58;;;;;;;3.83;2.00;;;;;;;-1.62;63.02;146929.50;5101966;28;20090;-63
2023/03/02 06:57:23;;;;;;;4.93;1.95;;;;;;;-1.39;64.49;146986.63;5102015;28;20028;-64
2023/03/02 06:59:49;;;;;;;3.08;1.83;;;;;;;-1.30;64.63;147006.97;5101891;28;20035;-64
2023/03/02 07:02:14;;;;;;;9.43;2.47;;;;;;;-1.49;63.21;146960.00;5101626;28;20108;-64
2023/03/02 07:04:40;;;;;;;5.88;2.15;;;;;;;-1.34;63.32;146998.09;5101873;28;20070;-63
2023/03/02 07:07:06;;;;;;;4.32;2.00;;;;;;;-1.76;63.36;146893.97;5100483;28;20070;-64
2023/03/02 07:09:32;;;;;;;5.10;1.95;;;;;;;-1.58;62.85;146938.44;5101169;28;20031;-64
2023/03/02 07:11:58;;;;;;;3.63;2.42;;;;;;;-1.58;63.00;146939.66;5100020;28;20099;-63
2023/03/02 07:14:24;;;;;;;5.22;2.40;;;;;;;-1.48;62.63;146962.50;5101286;28;20047;-64
2023/03/02 07:16:50;;;;;;;4.80;2.63;;;;;;;-1.46;63.12;146967.59;5101600;28;20031;-64
2023/03/02 07:19:18;;;;;;;5.30;2.63;;;;;;;-1.45;65.35;146971.41;5101386;28;20586;-64
2023/03/02 07:21:44;;;;;;;7.72;2.50;;;;;;;-1.40;65.42;146984.13;5100861;28;20095;-63
2023/03/02 07:24:09;;;;;;;4.60;2.60;;;;;;;-1.59;65.24;146937.13;5101219;28;20038;-64
2023/03/02 07:26:38;;;;;;;3.97;2.47;;;;;;;-1.39;65.76;146985.38;5098233;28;20133;-63
2023/03/02 07:29:03;;;;;;;4.47;2.50;;;;;;;-1.50;64.21;146957.44;5101382;28;20028;-65
2023/03/02 07:31:29;;;;;;;5.97;2.45;;;;;;;-1.72;65.73;146904.13;5101817;28;20035;-63
2023/03/02 07:34:00;;;;;;;4.13;2.15;;;;;;;-1.47;65.56;146966.34;5100328;28;20024;-64
2023/03/02 07:36:28;;;;;;;4.95;2.80;;;;;;;-1.28;64.38;147013.31;5095587;28;20035;-64
2023/03/02 07:38:54;;;;;;;7.15;2.95;;;;;;;-1.33;64.79;147000.59;5091652;28;20044;-64
2023/03/02 07:41:21;;;;;;;4.13;2.50;;;;;;;-1.46;64.80;146967.59;5105814;28;20028;-64
2023/03/02 07:43:47;;;;;;;5.78;2.35;;;;;;;-1.28;63.70;147013.31;5105833;28;20243;-64
2023/03/02 07:46:13;;;;;;;5.43;2.63;;;;;;;-1.16;62.69;147042.50;5105432;28;20030;-63
2023/03/02 07:48:44;;;;;;;5.07;2.40;;;;;;;-1.27;62.63;147015.88;5098848;28;20028;-63
2023/03/02 07:51:10;;;;;;;3.15;2.30;;;;;;;-1.40;63.82;146984.13;5096505;28;20525;-65
2023/03/02 07:53:35;;;;;;;4.47;2.50;;;;;;;-1.44;64.51;146973.97;5105392;28;20024;-64
2023/03/02 07:56:08;;;;;;;3.63;2.20;;;;;;;-1.73;64.29;146902.84;5105183;28;20359;-64
2023/03/02 07:58:34;;;;;;;4.85;2.25;;;;;;;-1.37;64.97;146990.44;5105199;28;20020;-63
2023/03/02 08:01:00;;;;;;;3.83;2.33;;;;;;;-1.52;64.52;146952.38;5105389;28;20020;-64
2023/03/02 08:03:43;;;;;;;4.63;2.45;;;;;;;-1.35;63.96;146994.25;5104669;28;20047;-64
2023/03/02 08:06:15;;;;;;;5.50;3.10;;;;;;;-1.31;62.69;147005.72;5100325;28;20032;-65
2023/03/02 08:08:51;;;;;;;3.22;2.20;;;;;;;-1.16;62.88;147041.28;5102963;28;20085;-66
2023/03/02 08:11:18;;;;;;;4.82;2.40;;;;;;;-1.07;62.60;147064.09;5101883;28;20032;-64
2023/03/02 08:13:44;;;;;;;5.20;2.30;;;;;;;-1.16;61.84;147041.28;5103800;28;20031;-65
2023/03/02 08:16:12;;;;;;;10.40;2.60;;;;;;;-1.26;62.42;147017.13;5102070;28;20020;-64
2023/03/02 08:18:38;;;;;;;6.40;2.60;;;;;;;-1.09;62.14;147059.03;5101400;28;20498;-64
2023/03/02 08:21:14;;;;;;;3.72;2.10;;;;;;;-1.06;62.43;147067.91;5102675;28;20199;-64
2023/03/02 08:23:52;;;;;;;3.33;1.85;;;;;;;-0.98;60.93;147085.69;5102146;28;20043;-65
2023/03/02 08:26:23;;;;;;;3.35;2.40;;;;;;;-0.99;60.90;147083.19;5102362;28;20514;-64
2023/03/02 08:28:49;;;;;;;4.65;2.15;;;;;;;-0.89;60.74;147109.84;5104194;28;20100;-64
2023/03/02 08:31:15;;;;;;;4.38;2.08;;;;;;;-0.78;59.45;147136.53;5103310;28;20035;-64
2023/03/02 08:33:40;;;;;;;4.13;2.30;;;;;;;-0.52;59.50;147201.31;5103661;28;20178;-64
2023/03/02 08:36:15;;;;;;;3.35;2.03;;;;;;;-0.36;59.38;147240.75;5102635;28;20058;-64
2023/03/02 08:38:49;;;;;;;4.95;2.35;;;;;;;-0.36;57.74;147240.75;5100431;28;20202;-64
2023/03/02 08:41:18;;;;;;;8.02;2.30;;;;;;;-0.33;59.75;147247.06;5100330;28;20032;-63
2023/03/02 08:43:47;;;;;;;;;;;;;;;-0.68;60.51;147159.38;5101347;28;20047;-63
2023/03/02 08:46:17;;;;;;;3.50;1.95;;;;;;;-0.49;58.97;147206.44;5103108;28;19908;-64
2023/03/02 08:48:43;;;;;;;6.28;2.22;;;;;;;-0.35;58.77;147243.25;5102472;28;20027;-64
2023/03/02 08:51:13;;;;;;;10.88;2.50;;;;;;;-0.48;58.59;147208.97;5102788;28;20058;-65
2023/03/02 08:53:43;;;;;;;5.78;2.50;;;;;;;-0.61;60.27;147177.22;5102909;28;20266;-64
2023/03/02 08:56:21;;;;;;;5.15;2.95;;;;;;;-0.38;61.14;147234.38;5101493;28;20050;-63
2023/03/02 08:59:26;;;;;;;7.03;2.75;;;;;;;-0.38;58.71;147235.63;5102132;28;20036;-63
2023/03/02 09:01:58;;;;;;;5.20;2.45;;;;;;;-0.39;59.64;147231.81;5102931;28;20086;-64
2023/03/02 09:04:27;;;;;;;4.38;2.40;;;;;;;-0.28;59.79;147258.53;5102905;28;20020;-64
2023/03/02 09:06:56;;;;;;;4.78;2.65;;;;;;;-0.50;59.42;147203.88;5103022;28;20020;-64
2023/03/02 09:09:21;;;;;;;6.13;3.00;;;;;;;-0.45;58.11;147216.59;5086211;28;20311;-63
2023/03/02 09:11:49;;;;;;;3.55;2.17;;;;;;;-0.48;59.38;147208.97;5104105;28;20289;-64
2023/03/02 09:14:15;;;;;;;3.90;2.38;;;;;;;-0.63;58.63;147173.34;5104022;28;20031;-64
2023/03/02 09:16:41;;;;;;;10.45;2.70;;;;;;;-0.96;60.09;147092.06;5104286;28;20028;-64
2023/03/02 09:19:12;;;;;;;15.80;2.72;;;;;;;-0.88;60.64;147111.13;5104155;28;20024;-64
2023/03/02 09:21:38;;;;;;;3.75;2.28;;;;;;;-0.89;60.23;147108.56;5102734;28;20023;-64
2023/03/02 09:24:04;;;;;;;6.55;2.08;;;;;;;-0.75;59.18;147142.91;5103586;28;20210;-63
2023/03/02 09:26:29;;;;;;;2.78;2.40;;;;;;;-0.60;59.72;147181.03;5103862;28;20020;-63
2023/03/02 09:29:00;;;;;;;2.65;2.13;;;;;;;-0.65;58.76;147167.03;5103837;28;20024;-63
2023/03/02 09:31:29;;;;;;;3.47;1.88;;;;;;;-0.71;58.93;147153.06;5103701;28;20028;-64
2023/03/02 09:34:04;;;;;;;3.95;2.00;;;;;;;-0.62;61.10;147174.66;5103748;28;20035;-64
2023/03/02 09:36:31;;;;;;;3.28;2.00;;;;;;;-0.72;58.60;147151.75;5102317;28;20028;-65
2023/03/02 09:38:57;;;;;;;2.40;1.80;;;;;;;-1.24;58.60;147022.19;5103510;28;20320;-65
2023/03/02 09:42:06;;;;;;;2.85;2.00;;;;;;;-1.15;59.46;147043.81;5101955;28;20096;-63
2023/03/02 09:44:35;;;;;;;12.38;2.55;;;;;;;-1.16;59.26;147041.28;5085350;28;20027;-63
2023/03/02 09:47:21;;;;;;;4.18;1.88;;;;;;;-1.05;59.39;147069.22;5081379;28;20118;-64
2023/03/02 09:50:04;;;;;;;3.78;1.85;;;;;;;-1.12;58.76;147051.44;5076799;28;20241;-64
2023/03/02 09:52:45;;;;;;;3.38;1.70;;;;;;;-1.15;59.27;147043.81;5099733;28;20412;-63
2023/03/02 09:55:17;;;;;;;4.63;1.98;;;;;;;-0.97;59.07;147088.25;5099585;28;20026;-64
2023/03/02 09:57:43;;;;;;;4.93;2.20;;;;;;;-0.91;59.51;147103.53;5102201;28;20035;-63
2023/03/02 10:00:18;;;;;;;2.35;1.83;;;;;;;-0.82;59.54;147126.38;5102749;28;20047;-63
2023/03/02 10:02:51;;;;;;;5.32;2.17;;;;;;;-0.70;58.47;147155.56;5100367;28;20031;-64
2023/03/02 10:05:26;;;;;;;3.38;1.77;;;;;;;-0.57;58.74;147188.63;5100225;28;20051;-64
2023/03/02 10:07:52;;;;;;;4.38;2.20;;;;;;;-0.71;58.17;147153.06;5102088;28;20032;-64
2023/03/02 10:10:52;;;;;;;2.50;1.80;;;;;;;-0.54;57.62;147195.00;5097707;28;20035;-64
2023/03/02 10:13:41;;;;;;;3.75;2.60;;;;;;;-0.38;59.01;147234.38;5100452;28;20100;-64
2023/03/02 10:16:24;;;;;;;6.30;2.35;;;;;;;-0.20;58.12;147278.84;5099882;28;20020;-63
2023/03/02 10:19:02;;;;;;;3.60;2.90;;;;;;;-0.29;56.85;147255.97;5100834;28;20032;-64
2023/03/02 10:21:37;;;;;;;6.57;2.83;;;;;;;-0.15;57.51;147290.31;5100120;28;20027;-64
2023/03/02 10:24:13;;;;;;;3.22;2.22;;;;;;;-0.41;57.52;147226.78;5100621;28;20028;-64
2023/03/02 10:26:53;;;;;;;8.85;2.80;;;;;;;-0.50;57.51;147205.13;5102227;28;20024;-64
2023/03/02 10:29:48;;;;;;;3.60;2.20;;;;;;;-0.42;55.62;147224.22;5099196;28;20028;-64
2023/03/02 10:32:29;;;;;;;2.88;1.85;;;;;;;-0.56;57.50;147191.13;5099256;28;20023;-66
2023/03/02 10:34:55;;;;;;;4.05;2.17;;;;;;;-0.70;56.68;147156.88;5093984;28;20031;-64
2023/03/02 10:37:24;;;;;;;4.07;2.80;;;;;;;-0.82;57.39;147125.09;5101328;28;20047;-64
2023/03/02 10:39:51;;;;;;;2.47;1.98;;;;;;;-0.68;56.81;147160.69;5100456;28;20035;-64
2023/03/02 10:42:25;;;;;;;3.55;2.13;;;;;;;-0.54;56.12;147195.00;5100453;28;20701;-64
2023/03/02 10:45:17;;;;;;;3.45;2.33;;;;;;;-0.27;56.75;147261.03;5099095;28;20365;-64
2023/03/02 10:47:43;;;;;;;4.68;2.45;;;;;;;-0.31;55.87;147250.88;5083751;28;20047;-64
2023/03/02 10:50:23;;;;;;;4.68;2.53;;;;;;;-0.40;56.74;147229.28;5101840;28;20205;-64
2023/03/02 10:52:51;;;;;;;5.00;2.33;;;;;;;-0.31;57.24;147250.88;5082187;28;20037;-64
2023/03/02 10:55:17;;;;;;;2.80;2.40;;;;;;;-0.52;56.34;147200.06;5097743;28;20043;-64
2023/03/02 10:57:57;;;;;;;2.90;2.40;;;;;;;-0.48;56.19;147210.22;5101329;28;20033;-64
2023/03/02 11:00:25;;;;;;;5.43;2.47;;;;;;;-0.24;56.45;147269.97;5100361;28;20028;-65
2023/03/02 11:02:56;;;;;;;3.60;2.72;;;;;;;-0.12;55.67;147297.94;5095324;28;20094;-63
2023/03/02 11:05:32;;;;;;;5.05;2.50;;;;;;;-0.24;55.84;147268.72;5100832;28;20024;-64
2023/03/02 11:08:08;;;;;;;4.97;2.60;;;;;;;-0.60;56.79;147179.72;5096859;28;20107;-64
2023/03/02 11:10:57;;;;;;;3.42;2.28;;;;;;;-0.51;56.61;147202.63;5101981;28;20476;-65
2023/03/02 11:13:32;;;;;;;3.55;2.35;;;;;;;-0.43;56.15;147221.66;5101097;28;20028;-65
2023/03/02 11:16:03;;;;;;;3.15;2.20;;;;;;;-0.67;56.83;147163.22;5095636;28;20085;-64
2023/03/02 11:18:47;;;;;;;2.38;2.17;;;;;;;-0.77;57.42;147139.09;5101786;28;20096;-63
2023/03/02 11:21:19;;;;;;;4.60;2.38;;;;;;;-0.88;58.76;147112.38;5100769;28;20090;-64
2023/03/02 11:24:18;;;;;;;5.63;2.58;;;;;;;-0.84;57.17;147121.31;5087612;28;20040;-64
2023/03/02 11:26:52;;;;;;;3.92;2.47;;;;;;;-0.83;58.00;147122.56;5102443;28;20044;-64
2023/03/02 11:29:50;;;;;;;4.20;2.40;;;;;;;-0.89;58.10;147109.84;5102143;28;20043;-64
2023/03/02 11:32:30;;;;;;;5.07;2.88;;;;;;;-0.54;58.36;147195.00;5098408;28;20207;-64
2023/03/02 11:35:09;;;;;;;3.88;2.20;;;;;;;-0.62;57.70;147175.91;5089744;28;20028;-64